createdAt,value
2022-10-02T00:02:24.057Z,8.98
2022-10-02T00:05:34.613Z,6.88
2022-10-02T00:08:43.938Z,7.75
2022-10-02T00:11:53.639Z,8.30
2022-10-02T00:15:03.658Z,7.50
2022-10-02T00:18:13.598Z,8.38
2022-10-02T00:21:31.388Z,7.97
2022-10-02T00:24:44.029Z,6.68
2022-10-02T00:28:00.928Z,6.90
2022-10-02T00:31:25.666Z,7.13
2022-10-02T00:34:36.905Z,6.07
2022-10-02T00:37:47.414Z,6.95
2022-10-02T00:41:31.175Z,6.10
2022-10-02T00:44:48.157Z,7.28
2022-10-02T00:47:59.374Z,6.32
2022-10-02T00:51:10.847Z,5.57
2022-10-02T00:54:45.773Z,6.13
2022-10-02T00:58:03.993Z,5.22
2022-10-02T01:01:14.870Z,5.38
2022-10-02T01:04:28.109Z,6.35
2022-10-02T01:07:36.129Z,5.20
2022-10-02T01:10:44.279Z,5.57
2022-10-02T01:13:52.313Z,4.97
2022-10-02T01:17:02.140Z,5.13
2022-10-02T01:20:13.623Z,4.50
2022-10-02T01:23:26.214Z,3.95
2022-10-02T01:26:35.956Z,4.95
2022-10-02T01:29:44.597Z,4.50
2022-10-02T01:32:54.182Z,4.43
2022-10-02T01:36:02.660Z,4.10
2022-10-02T01:39:11.341Z,4.20
2022-10-02T01:42:20.404Z,3.97
2022-10-02T01:45:35.025Z,3.35
2022-10-02T01:48:47.574Z,3.35
2022-10-02T01:52:12.907Z,3.92
2022-10-02T01:55:30.734Z,3.10
2022-10-02T01:58:46.499Z,2.95
2022-10-02T02:01:58.678Z,2.88
2022-10-02T02:05:08.697Z,3.38
2022-10-02T02:08:18.907Z,3.67
2022-10-02T02:11:27.016Z,3.33
2022-10-02T02:14:36.673Z,2.92
2022-10-02T02:17:48.453Z,3.10
2022-10-02T02:21:00.036Z,2.67
2022-10-02T02:24:10.449Z,3.20
2022-10-02T02:27:20.158Z,3.13
2022-10-02T02:30:31.578Z,2.92
2022-10-02T02:33:41.052Z,3.38
2022-10-02T02:36:51.873Z,2.88
2022-10-02T02:40:01.560Z,3.05
2022-10-02T02:43:11.225Z,2.47
2022-10-02T02:46:23.704Z,2.15
2022-10-02T02:49:33.727Z,2.17
2022-10-02T02:52:43.565Z,2.65
2022-10-02T02:55:52.641Z,3.45
2022-10-02T02:59:02.013Z,2.50
2022-10-02T03:02:11.242Z,2.25
2022-10-02T03:05:19.963Z,1.63
2022-10-02T03:08:29.829Z,2.33
2022-10-02T03:11:43.301Z,2.85
2022-10-02T03:14:59.380Z,2.38
2022-10-02T03:18:27.621Z,2.60
2022-10-02T03:21:37.834Z,2.85
2022-10-02T03:24:48.847Z,2.45
2022-10-02T03:28:01.610Z,2.20
2022-10-02T03:34:19.230Z,1.90
2022-10-02T03:37:27.557Z,1.80
2022-10-02T03:40:35.778Z,1.63
2022-10-02T03:43:43.785Z,1.88
2022-10-02T03:46:51.756Z,1.65
2022-10-02T03:50:00.944Z,1.92
2022-10-02T03:53:12.216Z,2.13
2022-10-02T03:56:24.998Z,2.10
2022-10-02T03:59:37.776Z,2.03
2022-10-02T04:02:47.987Z,2.53
2022-10-02T04:06:00.048Z,1.63
2022-10-02T04:09:10.179Z,1.92
2022-10-02T04:12:19.991Z,2.10
2022-10-02T04:15:29.677Z,2.22
2022-10-02T04:18:39.689Z,2.17
2022-10-02T04:21:52.273Z,2.50
2022-10-02T04:28:11.893Z,2.45
2022-10-02T04:31:19.770Z,2.22
2022-10-02T04:34:28.525Z,1.83
2022-10-02T04:37:57.622Z,1.52
2022-10-02T04:41:13.945Z,1.83
2022-10-02T04:44:30.670Z,2.17
2022-10-02T04:47:53.511Z,1.45
2022-10-02T04:54:21.570Z,2.28
2022-10-02T04:57:42.005Z,1.52
2022-10-02T05:00:52.517Z,1.77
2022-10-02T05:04:09.223Z,2.10
2022-10-02T05:07:26.354Z,1.63
2022-10-02T05:10:53.769Z,1.90
2022-10-02T05:14:16.706Z,1.70
2022-10-02T05:17:32.918Z,1.92
2022-10-02T05:20:58.577Z,1.98
2022-10-02T05:24:17.809Z,1.60
2022-10-02T05:27:47.867Z,3.08
2022-10-02T05:31:04.124Z,1.73
2022-10-02T05:34:20.150Z,1.40
2022-10-02T05:37:35.790Z,1.98
2022-10-02T05:40:45.146Z,1.50
2022-10-02T05:43:56.822Z,1.52
2022-10-02T05:47:08.745Z,1.73
2022-10-02T05:50:18.045Z,1.58
2022-10-02T05:53:32.599Z,2.17
2022-10-02T05:56:42.005Z,1.73
2022-10-02T06:00:00.796Z,1.67
2022-10-02T06:03:13.960Z,1.65
2022-10-02T06:06:23.023Z,1.35
2022-10-02T06:09:31.957Z,2.38
2022-10-02T06:12:42.021Z,1.40
2022-10-02T06:15:53.019Z,1.60
2022-10-02T06:19:05.390Z,1.65
2022-10-02T06:22:14.921Z,1.35
2022-10-02T06:25:26.204Z,1.40
2022-10-02T06:28:36.658Z,1.70
2022-10-02T06:31:48.290Z,1.38
2022-10-02T06:34:56.765Z,1.30
2022-10-02T06:38:11.696Z,1.73
2022-10-02T06:41:22.573Z,1.83
2022-10-02T06:44:33.815Z,1.73
2022-10-02T06:47:54.104Z,1.58
2022-10-02T06:51:04.618Z,1.50
2022-10-02T06:54:35.600Z,2.03
2022-10-02T06:57:51.742Z,1.38
2022-10-02T07:01:02.844Z,1.58
2022-10-02T07:04:25.129Z,1.33
2022-10-02T07:07:43.154Z,1.38
2022-10-02T07:10:52.877Z,1.92
2022-10-02T07:14:11.643Z,1.63
2022-10-02T07:17:30.453Z,0.93
2022-10-02T07:20:43.575Z,1.05
2022-10-02T07:23:57.731Z,2.15
2022-10-02T07:27:10.240Z,1.33
2022-10-02T07:30:18.240Z,1.40
2022-10-02T07:33:35.150Z,1.60
2022-10-02T07:36:50.160Z,1.02
2022-10-02T07:40:10.000Z,1.90
2022-10-02T07:43:35.527Z,1.58
2022-10-02T07:46:48.145Z,1.42
2022-10-02T07:49:57.387Z,1.00
2022-10-02T07:53:09.631Z,1.50
2022-10-02T07:56:20.013Z,1.42
2022-10-02T07:59:28.381Z,1.52
2022-10-02T08:02:40.136Z,1.02
2022-10-02T08:05:48.953Z,1.35
2022-10-02T08:09:01.445Z,1.65
2022-10-02T08:12:16.302Z,1.88
2022-10-02T08:15:24.622Z,1.80
2022-10-02T08:18:35.634Z,1.30
2022-10-02T08:21:46.222Z,1.38
2022-10-02T08:24:56.707Z,1.70
2022-10-02T08:28:06.948Z,1.40
2022-10-02T08:31:15.904Z,3.35
2022-10-02T08:34:25.171Z,1.90
2022-10-02T08:37:35.946Z,2.30
2022-10-02T08:41:33.257Z,2.38
2022-10-02T08:45:14.837Z,1.83
2022-10-02T08:48:55.789Z,3.00
2022-10-02T08:52:32.659Z,1.70
2022-10-02T08:56:04.072Z,1.80
2022-10-02T08:59:43.618Z,2.75
2022-10-02T09:03:27.587Z,1.58
2022-10-02T09:06:59.361Z,2.38
2022-10-02T09:10:53.586Z,1.80
2022-10-02T09:14:32.051Z,1.40
2022-10-02T09:17:52.808Z,1.55
2022-10-02T09:21:20.903Z,1.52
2022-10-02T09:25:01.181Z,1.45
2022-10-02T09:29:00.843Z,1.88
2022-10-02T09:32:34.797Z,2.00
2022-10-02T09:36:02.144Z,1.63
2022-10-02T09:39:38.987Z,2.33
2022-10-02T09:43:22.758Z,1.42
2022-10-02T09:46:51.321Z,2.10
2022-10-02T09:50:46.797Z,1.85
2022-10-02T09:54:31.804Z,2.00
2022-10-02T09:57:54.248Z,1.95
2022-10-02T10:01:25.317Z,2.08
2022-10-02T10:05:08.842Z,1.65
2022-10-02T10:08:42.305Z,2.30
2022-10-02T10:12:23.642Z,3.08
2022-10-02T10:16:31.555Z,1.92
2022-10-02T10:20:30.973Z,2.42
2022-10-02T10:24:13.291Z,2.10
2022-10-02T10:27:51.163Z,2.05
2022-10-02T10:31:22.114Z,2.00
2022-10-02T10:35:00.668Z,1.85
2022-10-02T10:38:34.215Z,1.85
2022-10-02T10:42:05.438Z,1.75
2022-10-02T10:45:47.368Z,1.73
2022-10-02T10:49:05.677Z,1.27
2022-10-02T10:52:16.225Z,1.80
2022-10-02T10:55:34.408Z,2.00
2022-10-02T10:58:52.937Z,1.92
2022-10-02T11:02:14.460Z,1.60
2022-10-02T11:05:56.136Z,1.42
2022-10-02T11:09:42.714Z,1.58
2022-10-02T11:12:58.693Z,1.83
2022-10-02T11:16:43.976Z,2.53
2022-10-02T11:20:08.800Z,1.90
2022-10-02T11:23:50.846Z,1.90
2022-10-02T11:27:27.766Z,1.55
2022-10-02T11:30:41.821Z,1.85
2022-10-02T11:34:11.208Z,1.55
2022-10-02T11:37:40.041Z,1.90
2022-10-02T11:40:54.933Z,2.20
2022-10-02T11:44:11.264Z,1.60
2022-10-02T11:47:55.059Z,1.67
2022-10-02T11:51:21.186Z,1.48
2022-10-02T11:54:40.158Z,2.42
2022-10-02T11:57:51.359Z,1.98
2022-10-02T12:01:24.305Z,1.95
2022-10-02T12:04:40.616Z,2.92
2022-10-02T12:07:53.164Z,2.10
2022-10-02T12:11:08.105Z,2.60
2022-10-02T12:14:24.706Z,2.75
2022-10-02T12:17:57.994Z,3.25
2022-10-02T12:21:31.220Z,2.30
2022-10-02T12:25:01.594Z,2.55
2022-10-02T12:28:14.485Z,2.03
2022-10-02T12:31:25.033Z,2.28
2022-10-02T12:34:39.525Z,2.28
2022-10-02T12:37:50.598Z,1.88
2022-10-02T12:41:03.746Z,2.00
2022-10-02T12:44:29.373Z,1.98
2022-10-02T12:47:47.734Z,2.08
2022-10-02T12:51:05.725Z,1.83
2022-10-02T12:54:55.230Z,1.88
2022-10-02T12:58:07.729Z,1.85
2022-10-02T13:04:57.988Z,1.70
2022-10-02T13:08:19.822Z,1.60
2022-10-02T13:11:33.718Z,1.60
2022-10-02T13:14:53.869Z,1.90
2022-10-02T13:18:07.764Z,1.70
2022-10-02T13:21:19.053Z,1.50
2022-10-02T13:24:38.697Z,1.77
2022-10-02T13:27:50.640Z,1.67
2022-10-02T13:31:03.904Z,2.00
2022-10-02T13:34:19.926Z,1.33
2022-10-02T13:37:33.293Z,1.02
2022-10-02T13:40:44.897Z,1.67
2022-10-02T13:44:05.526Z,2.15
2022-10-02T13:47:27.873Z,1.25
2022-10-02T13:50:45.095Z,1.35
2022-10-02T13:54:29.955Z,1.85
2022-10-02T13:57:48.933Z,1.27
2022-10-02T14:01:07.023Z,1.73
2022-10-02T14:04:37.281Z,1.70
2022-10-02T14:07:57.559Z,1.38
2022-10-02T14:11:11.428Z,1.50
2022-10-02T14:14:24.803Z,1.83
2022-10-02T14:17:36.803Z,1.80
2022-10-02T14:20:47.262Z,1.40
2022-10-02T14:24:06.581Z,1.27
2022-10-02T14:27:19.216Z,1.35
2022-10-02T14:33:45.640Z,1.00
2022-10-02T14:37:16.757Z,1.08
2022-10-02T14:40:28.922Z,0.88
2022-10-02T14:44:07.607Z,1.55
2022-10-02T14:47:26.355Z,1.27
2022-10-02T14:50:53.578Z,1.15
2022-10-02T14:54:23.191Z,1.25
2022-10-02T14:57:43.532Z,1.40
2022-10-02T15:01:01.413Z,0.98
2022-10-02T15:04:21.932Z,1.35
2022-10-02T15:07:30.182Z,1.77
2022-10-02T15:10:38.944Z,1.33
2022-10-02T15:13:51.379Z,1.15
2022-10-02T15:17:18.169Z,1.10
2022-10-02T15:20:40.476Z,1.20
2022-10-02T15:23:49.729Z,1.63
2022-10-02T15:27:01.375Z,1.55
2022-10-02T15:30:19.576Z,1.48
2022-10-02T15:33:30.570Z,1.27
2022-10-02T15:36:57.830Z,2.33
2022-10-02T15:40:12.958Z,1.25
2022-10-02T15:43:32.583Z,1.33
2022-10-02T15:46:52.878Z,1.55
2022-10-02T15:50:10.143Z,1.52
2022-10-02T15:53:34.048Z,1.40
2022-10-02T15:57:08.009Z,1.40
2022-10-02T16:00:17.012Z,1.45
2022-10-02T16:03:28.088Z,1.08
2022-10-02T16:06:53.517Z,1.55
2022-10-02T16:10:09.084Z,1.13
2022-10-02T16:13:28.377Z,1.10
2022-10-02T16:17:02.693Z,1.13
2022-10-02T16:20:35.074Z,1.50
2022-10-02T16:23:53.406Z,1.25
2022-10-02T16:27:17.934Z,2.72
2022-10-02T16:30:26.082Z,9.07
2022-10-02T16:33:40.365Z,13.85
2022-10-02T16:36:52.403Z,6.57
2022-10-02T16:40:01.000Z,6.85
2022-10-02T16:43:26.286Z,6.15
2022-10-02T16:46:36.418Z,8.13
2022-10-02T16:49:50.500Z,7.45
2022-10-02T16:53:02.269Z,5.40
2022-10-02T16:56:12.232Z,4.90
2022-10-02T16:59:23.517Z,5.00
2022-10-02T17:02:35.003Z,5.32
2022-10-02T17:05:46.621Z,4.22
2022-10-02T17:09:01.197Z,5.38
2022-10-02T17:12:14.204Z,3.50
2022-10-02T17:15:24.447Z,3.58
2022-10-02T17:18:35.033Z,2.90
2022-10-02T17:21:45.505Z,3.22
2022-10-02T17:25:01.242Z,3.22
2022-10-02T17:28:12.788Z,3.15
2022-10-02T17:31:29.577Z,2.95
2022-10-02T17:34:47.787Z,3.25
2022-10-02T17:38:25.800Z,2.97
2022-10-02T17:41:43.398Z,2.45
2022-10-02T17:44:56.283Z,2.63
2022-10-02T17:51:51.883Z,2.35
2022-10-02T17:55:21.495Z,2.30
2022-10-02T17:58:35.640Z,2.20
2022-10-02T18:01:45.129Z,1.98
2022-10-02T18:05:08.285Z,1.77
2022-10-02T18:08:28.553Z,1.90
2022-10-02T18:12:00.622Z,2.00
2022-10-02T18:15:24.877Z,2.28
2022-10-02T18:18:35.504Z,1.65
2022-10-02T18:21:47.611Z,2.72
2022-10-02T18:25:07.683Z,1.80
2022-10-02T18:28:39.527Z,1.83
2022-10-02T18:31:59.640Z,1.95
2022-10-02T18:35:19.786Z,2.20
2022-10-02T18:38:31.222Z,2.15
2022-10-02T18:41:50.700Z,2.63
2022-10-02T18:45:03.393Z,2.53
2022-10-02T18:48:25.928Z,1.88
2022-10-02T18:51:54.662Z,1.90
2022-10-02T18:55:16.362Z,3.15
2022-10-02T18:58:32.785Z,2.10
2022-10-02T19:01:48.772Z,1.80
2022-10-02T19:05:17.883Z,2.00
2022-10-02T19:08:28.531Z,2.92
2022-10-02T19:11:43.106Z,2.20
2022-10-02T19:14:56.018Z,2.22
2022-10-02T19:18:05.062Z,1.92
2022-10-02T19:21:14.516Z,1.92
2022-10-02T19:24:24.136Z,1.80
2022-10-02T19:27:34.738Z,1.58
2022-10-02T19:30:45.424Z,1.65
2022-10-02T19:33:55.131Z,2.05
2022-10-02T19:37:07.451Z,1.70
2022-10-02T19:39:56.101Z,1.85
2022-10-02T19:42:47.208Z,2.40
2022-10-02T19:45:35.445Z,1.85
2022-10-02T19:48:24.718Z,2.00
2022-10-02T19:51:18.037Z,1.50
2022-10-02T19:54:08.027Z,1.63
2022-10-02T19:56:57.865Z,1.60
2022-10-02T19:59:47.083Z,1.88
2022-10-02T20:02:37.229Z,1.63
2022-10-02T20:05:26.396Z,1.70
2022-10-02T20:08:15.520Z,1.35
2022-10-02T20:11:06.626Z,1.67
2022-10-02T20:13:55.965Z,1.70
2022-10-02T20:17:01.109Z,1.48
2022-10-02T20:19:50.704Z,1.55
2022-10-02T20:22:40.123Z,1.52
2022-10-02T20:25:29.178Z,1.65
2022-10-02T20:28:20.429Z,1.65
2022-10-02T20:31:12.209Z,1.30
2022-10-02T20:34:01.284Z,1.23
2022-10-02T20:36:53.880Z,2.67
2022-10-02T20:42:30.662Z,8.63
2022-10-02T20:45:19.943Z,9.85
2022-10-02T20:49:08.156Z,9.70
2022-10-02T20:52:15.522Z,10.13
2022-10-02T20:55:04.596Z,10.25
2022-10-02T20:58:01.406Z,9.57
2022-10-02T21:01:00.948Z,12.63
2022-10-02T21:04:08.392Z,9.95
2022-10-02T21:07:14.749Z,9.30
2022-10-02T21:10:39.267Z,9.63
2022-10-02T21:13:52.529Z,10.13
2022-10-02T21:17:00.473Z,7.75
2022-10-02T21:20:09.755Z,9.20
2022-10-02T21:23:16.624Z,7.07
2022-10-02T21:26:32.981Z,6.72
2022-10-02T21:29:27.069Z,7.75
2022-10-02T21:32:42.361Z,7.70
2022-10-02T21:35:37.580Z,7.15
2022-10-02T21:39:03.457Z,7.43
2022-10-02T21:42:34.547Z,6.50
2022-10-02T21:46:13.581Z,6.10
2022-10-02T21:49:57.729Z,5.82
2022-10-02T21:53:30.785Z,5.55
2022-10-02T21:57:20.029Z,6.95
2022-10-02T22:01:20.353Z,6.63
2022-10-02T22:04:46.253Z,5.07
2022-10-02T22:07:56.396Z,4.68
2022-10-02T22:11:09.538Z,5.60
2022-10-02T22:14:23.370Z,4.10
2022-10-02T22:17:33.938Z,4.68
2022-10-02T22:20:48.880Z,4.10
2022-10-02T22:24:09.608Z,4.38
2022-10-02T22:27:49.099Z,5.93
2022-10-02T22:31:37.682Z,3.80
2022-10-02T22:34:48.422Z,4.43
2022-10-02T22:38:04.900Z,3.40
2022-10-02T22:41:18.464Z,4.93
2022-10-02T22:44:30.124Z,3.28
2022-10-02T22:47:39.734Z,3.93
2022-10-02T22:50:48.885Z,3.63
2022-10-02T22:54:00.837Z,3.92
2022-10-02T22:57:21.251Z,3.07
2022-10-02T23:00:31.837Z,3.28
2022-10-02T23:03:42.715Z,3.38
2022-10-02T23:06:52.245Z,3.28
2022-10-02T23:10:01.754Z,3.28
2022-10-02T23:13:15.240Z,3.00
2022-10-02T23:16:27.691Z,2.58
2022-10-02T23:19:41.122Z,2.30
2022-10-02T23:22:52.320Z,3.75
2022-10-02T23:26:03.026Z,3.75
2022-10-02T23:29:19.503Z,2.47
2022-10-02T23:32:33.260Z,2.90
2022-10-02T23:35:47.673Z,4.10
2022-10-02T23:39:03.212Z,2.97
2022-10-02T23:42:14.813Z,2.88
2022-10-02T23:45:25.974Z,2.05
2022-10-02T23:48:35.222Z,3.25
2022-10-02T23:51:46.692Z,3.20
2022-10-02T23:55:04.327Z,2.78
2022-10-02T23:58:20.054Z,3.20
